sensor_id;sensor_type;location;lat;lon;timestamp;pressure;altitude;pressure_sealevel;temperature;humidity
56928;BME280;60850;52.502;13.426;2022-10-22T00:01:25;100677.34;;;13.32;100.00
56928;BME280;60850;52.502;13.426;2022-10-22T00:03:52;100690.56;;;13.36;100.00
56928;BME280;60850;52.502;13.426;2022-10-22T00:06:20;100691.19;;;13.43;100.00
56928;BME280;60850;52.502;13.426;2022-10-22T00:08:48;100674.91;;;13.49;100.00
56928;BME280;60850;52.502;13.426;2022-10-22T00:11:18;100673.78;;;13.55;100.00
56928;BME280;60850;52.502;13.426;2022-10-22T00:13:46;100690.59;;;13.58;100.00
56928;BME280;60850;52.502;13.426;2022-10-22T00:16:13;100682.31;;;13.64;100.00
56928;BME280;60850;52.502;13.426;2022-10-22T00:18:40;100688.38;;;13.69;100.00
56928;BME280;60850;52.502;13.426;2022-10-22T00:21:08;100695.34;;;13.73;100.00
56928;BME280;60850;52.502;13.426;2022-10-22T00:23:35;100686.31;;;13.76;100.00
56928;BME280;60850;52.502;13.426;2022-10-22T00:26:03;100688.78;;;13.81;100.00
56928;BME280;60850;52.502;13.426;2022-10-22T00:28:30;100686.06;;;13.82;100.00
56928;BME280;60850;52.502;13.426;2022-10-22T00:30:58;100673.47;;;13.84;100.00
56928;BME280;60850;52.502;13.426;2022-10-22T00:33:27;100663.63;;;13.85;100.00
56928;BME280;60850;52.502;13.426;2022-10-22T00:35:54;100661.75;;;13.87;100.00
56928;BME280;60850;52.502;13.426;2022-10-22T00:38:21;100671.53;;;13.88;100.00
56928;BME280;60850;52.502;13.426;2022-10-22T00:40:48;100664.34;;;13.88;100.00
56928;BME280;60850;52.502;13.426;2022-10-22T00:43:18;100663.38;;;13.91;100.00
56928;BME280;60850;52.502;13.426;2022-10-22T00:45:45;100652.72;;;13.89;100.00
56928;BME280;60850;52.502;13.426;2022-10-22T00:48:14;100652.75;;;13.88;100.00
56928;BME280;60850;52.502;13.426;2022-10-22T00:50:46;100653.63;;;13.88;100.00
56928;BME280;60850;52.502;13.426;2022-10-22T00:53:18;100660.06;;;13.84;100.00
56928;BME280;60850;52.502;13.426;2022-10-22T00:55:49;100660.06;;;13.84;100.00
56928;BME280;60850;52.502;13.426;2022-10-22T00:58:19;100670.88;;;13.83;100.00
56928;BME280;60850;52.502;13.426;2022-10-22T01:00:48;100678.91;;;13.83;100.00
56928;BME280;60850;52.502;13.426;2022-10-22T01:03:16;100675.34;;;13.82;100.00
56928;BME280;60850;52.502;13.426;2022-10-22T01:05:45;100680.75;;;13.81;100.00
56928;BME280;60850;52.502;13.426;2022-10-22T01:08:24;100694.97;;;13.83;100.00
56928;BME280;60850;52.502;13.426;2022-10-22T01:10:58;100700.44;;;13.80;100.00
56928;BME280;60850;52.502;13.426;2022-10-22T01:13:38;100688.00;;;13.79;100.00
56928;BME280;60850;52.502;13.426;2022-10-22T01:16:16;100688.00;;;13.79;100.00
56928;BME280;60850;52.502;13.426;2022-10-22T01:18:50;100696.84;;;13.81;100.00
56928;BME280;60850;52.502;13.426;2022-10-22T01:21:25;100703.97;;;13.82;100.00
56928;BME280;60850;52.502;13.426;2022-10-22T01:26:58;100671.84;;;13.80;100.00
56928;BME280;60850;52.502;13.426;2022-10-22T01:29:29;100674.59;;;13.79;100.00
56928;BME280;60850;52.502;13.426;2022-10-22T01:32:01;100677.41;;;13.76;100.00
56928;BME280;60850;52.502;13.426;2022-10-22T01:34:31;100665.84;;;13.73;100.00
56928;BME280;60850;52.502;13.426;2022-10-22T01:36:59;100666.88;;;13.71;100.00
56928;BME280;60850;52.502;13.426;2022-10-22T01:39:29;100671.34;;;13.70;100.00
56928;BME280;60850;52.502;13.426;2022-10-22T01:41:57;100671.44;;;13.69;100.00
56928;BME280;60850;52.502;13.426;2022-10-22T01:44:26;100674.97;;;13.69;100.00
56928;BME280;60850;52.502;13.426;2022-10-22T01:47:02;100670.41;;;13.71;100.00
56928;BME280;60850;52.502;13.426;2022-10-22T01:49:39;100666.94;;;13.69;100.00
56928;BME280;60850;52.502;13.426;2022-10-22T01:52:14;100674.97;;;13.69;100.00
56928;BME280;60850;52.502;13.426;2022-10-22T01:54:54;100686.63;;;13.68;100.00
56928;BME280;60850;52.502;13.426;2022-10-22T01:57:31;100681.28;;;13.68;100.00
56928;BME280;60850;52.502;13.426;2022-10-22T02:00:03;100678.63;;;13.67;100.00
56928;BME280;60850;52.502;13.426;2022-10-22T02:02:40;100688.63;;;13.63;100.00
56928;BME280;60850;52.502;13.426;2022-10-22T02:05:13;100687.81;;;13.61;100.00
56928;BME280;60850;52.502;13.426;2022-10-22T02:07:46;100683.41;;;13.60;100.00
56928;BME280;60850;52.502;13.426;2022-10-22T02:10:16;100680.72;;;13.60;100.00
56928;BME280;60850;52.502;13.426;2022-10-22T02:12:48;100688.75;;;13.60;100.00
56928;BME280;60850;52.502;13.426;2022-10-22T02:15:17;100688.78;;;13.59;100.00
56928;BME280;60850;52.502;13.426;2022-10-22T02:17:46;100681.59;;;13.61;100.00
56928;BME280;60850;52.502;13.426;2022-10-22T02:20:17;100685.13;;;13.61;100.00
56928;BME280;60850;52.502;13.426;2022-10-22T02:22:45;100681.59;;;13.61;100.00
56928;BME280;60850;52.502;13.426;2022-10-22T02:25:13;100684.25;;;13.61;100.00
56928;BME280;60850;52.502;13.426;2022-10-22T02:27:42;100685.13;;;13.61;100.00
56928;BME280;60850;52.502;13.426;2022-10-22T02:30:11;100680.66;;;13.62;100.00
56928;BME280;60850;52.502;13.426;2022-10-22T02:32:43;100677.91;;;13.63;100.00
56928;BME280;60850;52.502;13.426;2022-10-22T02:35:15;100669.94;;;13.62;100.00
56928;BME280;60850;52.502;13.426;2022-10-22T02:37:43;100670.03;;;13.59;100.00
56928;BME280;60850;52.502;13.426;2022-10-22T02:40:10;100678.22;;;13.56;100.00
56928;BME280;60850;52.502;13.426;2022-10-22T02:42:38;100673.97;;;13.50;100.00
56928;BME280;60850;52.502;13.426;2022-10-22T02:45:07;100672.31;;;13.46;100.00
56928;BME280;60850;52.502;13.426;2022-10-22T02:47:34;100679.69;;;13.41;100.00
56928;BME280;60850;52.502;13.426;2022-10-22T02:50:01;100685.16;;;13.38;100.00
56928;BME280;60850;52.502;13.426;2022-10-22T02:52:29;100680.84;;;13.34;100.00
56928;BME280;60850;52.502;13.426;2022-10-22T02:54:56;100690.72;;;13.32;100.00
56928;BME280;60850;52.502;13.426;2022-10-22T02:57:23;100690.81;;;13.30;100.00
56928;BME280;60850;52.502;13.426;2022-10-22T02:59:50;100696.16;;;13.30;100.00
56928;BME280;60850;52.502;13.426;2022-10-22T03:02:17;100697.03;;;13.31;100.00
56928;BME280;60850;52.502;13.426;2022-10-22T03:04:44;100693.41;;;13.32;100.00
56928;BME280;60850;52.502;13.426;2022-10-22T03:07:10;100689.81;;;13.33;100.00
56928;BME280;60850;52.502;13.426;2022-10-22T03:09:39;100683.59;;;13.32;100.00
56928;BME280;60850;52.502;13.426;2022-10-22T03:12:06;100681.91;;;13.30;100.00
56928;BME280;60850;52.502;13.426;2022-10-22T03:14:33;100681.09;;;13.28;100.00
56928;BME280;60850;52.502;13.426;2022-10-22T03:17:01;100675.66;;;13.29;100.00
56928;BME280;60850;52.502;13.426;2022-10-22T03:19:28;100675.75;;;13.28;100.00
56928;BME280;60850;52.502;13.426;2022-10-22T03:21:57;100670.25;;;13.31;100.00
56928;BME280;60850;52.502;13.426;2022-10-22T03:24:28;100679.13;;;13.33;100.00
56928;BME280;60850;52.502;13.426;2022-10-22T03:26:57;100672.81;;;13.34;100.00
56928;BME280;60850;52.502;13.426;2022-10-22T03:29:25;100665.75;;;13.31;100.00
56928;BME280;60850;52.502;13.426;2022-10-22T03:31:53;100671.88;;;13.35;100.00
56928;BME280;60850;52.502;13.426;2022-10-22T03:34:20;100681.59;;;13.37;100.00
56928;BME280;60850;52.502;13.426;2022-10-22T03:36:48;100680.72;;;13.37;100.00
56928;BME280;60850;52.502;13.426;2022-10-22T03:39:17;100682.44;;;13.39;100.00
56928;BME280;60850;52.502;13.426;2022-10-22T03:41:45;100686.84;;;13.40;100.00
56928;BME280;60850;52.502;13.426;2022-10-22T03:44:15;100685.91;;;13.41;100.00
56928;BME280;60850;52.502;13.426;2022-10-22T03:46:43;100677.94;;;13.40;100.00
56928;BME280;60850;52.502;13.426;2022-10-22T03:49:10;100680.56;;;13.41;100.00
56928;BME280;60850;52.502;13.426;2022-10-22T03:51:37;100679.69;;;13.41;100.00
56928;BME280;60850;52.502;13.426;2022-10-22T03:54:04;100678.75;;;13.42;100.00
56928;BME280;60850;52.502;13.426;2022-10-22T03:56:31;100691.19;;;13.43;100.00
56928;BME280;60850;52.502;13.426;2022-10-22T03:59:00;100688.47;;;13.44;100.00
56928;BME280;60850;52.502;13.426;2022-10-22T04:01:29;100684.97;;;13.42;100.00
56928;BME280;60850;52.502;13.426;2022-10-22T04:03:56;100679.69;;;13.41;100.00
56928;BME280;60850;52.502;13.426;2022-10-22T04:06:24;100685.84;;;13.43;100.00
56928;BME280;60850;52.502;13.426;2022-10-22T04:08:51;100696.56;;;13.43;100.00
56928;BME280;60850;52.502;13.426;2022-10-22T04:11:18;100698.31;;;13.44;100.00
56928;BME280;60850;52.502;13.426;2022-10-22T04:13:45;100702.84;;;13.42;100.00
56928;BME280;60850;52.502;13.426;2022-10-22T04:16:13;100706.34;;;13.44;100.00
56928;BME280;60850;52.502;13.426;2022-10-22T04:18:43;100701.78;;;13.46;100.00
56928;BME280;60850;52.502;13.426;2022-10-22T04:21:12;100711.63;;;13.45;100.00
56928;BME280;60850;52.502;13.426;2022-10-22T04:23:43;100713.44;;;13.45;100.00
56928;BME280;60850;52.502;13.426;2022-10-22T04:26:10;100721.47;;;13.45;100.00
56928;BME280;60850;52.502;13.426;2022-10-22T04:28:38;100725.09;;;13.44;100.00
56928;BME280;60850;52.502;13.426;2022-10-22T04:31:08;100730.44;;;13.44;100.00
56928;BME280;60850;52.502;13.426;2022-10-22T04:33:35;100728.69;;;13.43;100.00
56928;BME280;60850;52.502;13.426;2022-10-22T04:36:07;100727.75;;;13.44;100.00
56928;BME280;60850;52.502;13.426;2022-10-22T04:38:34;100716.25;;;13.42;100.00
56928;BME280;60850;52.502;13.426;2022-10-22T04:41:08;100725.09;;;13.44;100.00
56928;BME280;60850;52.502;13.426;2022-10-22T04:43:35;100721.59;;;13.42;100.00
56928;BME280;60850;52.502;13.426;2022-10-22T04:46:02;100710.97;;;13.39;100.00
56928;BME280;60850;52.502;13.426;2022-10-22T04:48:29;100718.13;;;13.40;100.00
56928;BME280;60850;52.502;13.426;2022-10-22T04:50:56;100726.19;;;13.38;100.00
56928;BME280;60850;52.502;13.426;2022-10-22T04:53:24;100714.59;;;13.38;100.00
56928;BME280;60850;52.502;13.426;2022-10-22T04:55:51;100712.84;;;13.37;100.00
56928;BME280;60850;52.502;13.426;2022-10-22T04:58:18;100704.03;;;13.35;100.00
56928;BME280;60850;52.502;13.426;2022-10-22T05:00:45;100705.03;;;13.32;100.00
56928;BME280;60850;52.502;13.426;2022-10-22T05:03:12;100706.00;;;13.30;100.00
56928;BME280;60850;52.502;13.426;2022-10-22T05:05:38;100715.09;;;13.26;100.00
56928;BME280;60850;52.502;13.426;2022-10-22T05:08:05;100713.31;;;13.25;100.00
56928;BME280;60850;52.502;13.426;2022-10-22T05:10:33;100710.72;;;13.23;100.00
56928;BME280;60850;52.502;13.426;2022-10-22T05:13:00;100703.72;;;13.19;100.00
56928;BME280;60850;52.502;13.426;2022-10-22T05:15:27;100709.16;;;13.16;100.00
56928;BME280;60850;52.502;13.426;2022-10-22T05:17:54;100710.22;;;13.12;100.00
56928;BME280;60850;52.502;13.426;2022-10-22T05:20:21;100710.25;;;13.10;100.00
56928;BME280;60850;52.502;13.426;2022-10-22T05:22:48;100721.97;;;13.08;100.00
56928;BME280;60850;52.502;13.426;2022-10-22T05:25:15;100721.22;;;13.04;100.00
56928;BME280;60850;52.502;13.426;2022-10-22T05:27:47;100723.91;;;13.03;100.00
56928;BME280;60850;52.502;13.426;2022-10-22T05:30:14;100724.06;;;13.00;100.00
56928;BME280;60850;52.502;13.426;2022-10-22T05:32:41;100720.56;;;12.98;100.00
56928;BME280;60850;52.502;13.426;2022-10-22T05:35:09;100727.75;;;12.96;100.00
56928;BME280;60850;52.502;13.426;2022-10-22T05:37:36;100719.78;;;12.94;100.00
56928;BME280;60850;52.502;13.426;2022-10-22T05:40:03;100720.72;;;12.93;100.00
56928;BME280;60850;52.502;13.426;2022-10-22T05:42:31;100718.91;;;12.93;100.00
56928;BME280;60850;52.502;13.426;2022-10-22T05:44:59;100718.06;;;12.93;100.00
56928;BME280;60850;52.502;13.426;2022-10-22T05:47:28;100728.75;;;12.93;100.00
56928;BME280;60850;52.502;13.426;2022-10-22T05:49:55;100735.91;;;12.92;100.00
56928;BME280;60850;52.502;13.426;2022-10-22T05:52:23;100735.97;;;12.91;100.00
56928;BME280;60850;52.502;13.426;2022-10-22T05:54:49;100739.59;;;12.90;100.00
56928;BME280;60850;52.502;13.426;2022-10-22T05:57:17;100748.50;;;12.89;100.00
56928;BME280;60850;52.502;13.426;2022-10-22T05:59:45;100754.78;;;12.88;100.00
56928;BME280;60850;52.502;13.426;2022-10-22T06:02:13;100752.13;;;12.88;100.00
56928;BME280;60850;52.502;13.426;2022-10-22T06:04:40;100755.72;;;12.87;100.00
56928;BME280;60850;52.502;13.426;2022-10-22T06:07:09;100750.38;;;12.87;100.00
56928;BME280;60850;52.502;13.426;2022-10-22T06:09:39;100747.75;;;12.85;100.00
56928;BME280;60850;52.502;13.426;2022-10-22T06:12:06;100742.41;;;12.85;100.00
56928;BME280;60850;52.502;13.426;2022-10-22T06:14:35;100746.88;;;12.85;100.00
56928;BME280;60850;52.502;13.426;2022-10-22T06:17:02;100747.81;;;12.84;100.00
56928;BME280;60850;52.502;13.426;2022-10-22T06:19:31;100746.97;;;12.82;100.00
56928;BME280;60850;52.502;13.426;2022-10-22T06:21:58;100752.41;;;12.80;100.00
56928;BME280;60850;52.502;13.426;2022-10-22T06:24:24;100755.13;;;12.79;100.00
56928;BME280;60850;52.502;13.426;2022-10-22T06:26:51;100760.53;;;12.77;100.00
56928;BME280;60850;52.502;13.426;2022-10-22T06:29:18;100765.03;;;12.77;100.00
56928;BME280;60850;52.502;13.426;2022-10-22T06:31:45;100766.63;;;12.81;100.00
56928;BME280;60850;52.502;13.426;2022-10-22T06:34:13;100771.78;;;12.87;100.00
56928;BME280;60850;52.502;13.426;2022-10-22T06:36:45;100770.53;;;12.97;100.00
56928;BME280;60850;52.502;13.426;2022-10-22T06:39:13;100774.63;;;13.07;100.00
56928;BME280;60850;52.502;13.426;2022-10-22T06:41:40;100780.56;;;13.15;100.00
56928;BME280;60850;52.502;13.426;2022-10-22T06:44:13;100780.31;;;13.23;100.00
56928;BME280;60850;52.502;13.426;2022-10-22T06:46:41;100780.97;;;13.30;100.00
56928;BME280;60850;52.502;13.426;2022-10-22T06:49:11;100782.59;;;13.34;100.00
56928;BME280;60850;52.502;13.426;2022-10-22T06:51:38;100793.19;;;13.37;100.00
56928;BME280;60850;52.502;13.426;2022-10-22T06:54:07;100799.25;;;13.42;100.00
56928;BME280;60850;52.502;13.426;2022-10-22T06:56:34;100789.34;;;13.44;100.00
56928;BME280;60850;52.502;13.426;2022-10-22T06:59:00;100787.47;;;13.46;100.00
56928;BME280;60850;52.502;13.426;2022-10-22T07:01:29;100786.38;;;13.52;100.00
56928;BME280;60850;52.502;13.426;2022-10-22T07:03:57;100795.25;;;13.54;100.00
56928;BME280;60850;52.502;13.426;2022-10-22T07:06:25;100790.63;;;13.57;100.00
56928;BME280;60850;52.502;13.426;2022-10-22T07:08:52;100796.78;;;13.61;100.00
56928;BME280;60850;52.502;13.426;2022-10-22T07:11:23;100792.97;;;13.66;100.00
56928;BME280;60850;52.502;13.426;2022-10-22T07:13:50;100805.25;;;13.72;100.00
56928;BME280;60850;52.502;13.426;2022-10-22T07:16:19;100800.66;;;13.76;100.00
56928;BME280;60850;52.502;13.426;2022-10-22T07:18:47;100800.47;;;13.80;100.00
56928;BME280;60850;52.502;13.426;2022-10-22T07:21:16;100804.78;;;13.84;100.00
56928;BME280;60850;52.502;13.426;2022-10-22T07:23:45;100807.34;;;13.87;100.00
56928;BME280;60850;52.502;13.426;2022-10-22T07:26:13;100807.16;;;13.92;100.00
56928;BME280;60850;52.502;13.426;2022-10-22T07:28:41;100805.06;;;14.00;100.00
56928;BME280;60850;52.502;13.426;2022-10-22T07:31:10;100813.66;;;14.08;100.00
56928;BME280;60850;52.502;13.426;2022-10-22T07:33:37;100808.81;;;14.18;100.00
56928;BME280;60850;52.502;13.426;2022-10-22T07:36:06;100804.81;;;14.28;100.00
56928;BME280;60850;52.502;13.426;2022-10-22T07:38:34;100807.00;;;14.40;100.00
56928;BME280;60850;52.502;13.426;2022-10-22T07:41:02;100818.88;;;14.56;100.00
56928;BME280;60850;52.502;13.426;2022-10-22T07:43:29;100824.28;;;14.77;100.00
56928;BME280;60850;52.502;13.426;2022-10-22T07:45:57;100833.91;;;15.03;100.00
56928;BME280;60850;52.502;13.426;2022-10-22T07:48:24;100838.88;;;15.12;100.00
56928;BME280;60850;52.502;13.426;2022-10-22T07:50:51;100847.69;;;15.16;100.00
56928;BME280;60850;52.502;13.426;2022-10-22T07:53:18;100854.81;;;15.15;100.00
56928;BME280;60850;52.502;13.426;2022-10-22T07:55:47;100846.66;;;15.18;100.00
56928;BME280;60850;52.502;13.426;2022-10-22T07:58:14;100846.47;;;15.23;100.00
56928;BME280;60850;52.502;13.426;2022-10-22T08:00:41;100850.97;;;15.22;100.00
56928;BME280;60850;52.502;13.426;2022-10-22T08:03:10;100845.63;;;15.21;100.00
56928;BME280;60850;52.502;13.426;2022-10-22T08:05:37;100842.91;;;15.22;100.00
56928;BME280;60850;52.502;13.426;2022-10-22T08:08:04;100849.06;;;15.24;100.00
56928;BME280;60850;52.502;13.426;2022-10-22T08:10:32;100850.88;;;15.24;100.00
56928;BME280;60850;52.502;13.426;2022-10-22T08:12:59;100853.66;;;15.22;100.00
56928;BME280;60850;52.502;13.426;2022-10-22T08:15:26;100852.63;;;15.25;100.00
56928;BME280;60850;52.502;13.426;2022-10-22T08:17:53;100849.59;;;15.32;100.00
56928;BME280;60850;52.502;13.426;2022-10-22T08:20:21;100854.72;;;15.38;100.00
56928;BME280;60850;52.502;13.426;2022-10-22T08:22:48;100854.47;;;15.43;100.00
56928;BME280;60850;52.502;13.426;2022-10-22T08:25:16;100852.53;;;15.47;100.00
56928;BME280;60850;52.502;13.426;2022-10-22T08:27:43;100850.66;;;15.49;100.00
56928;BME280;60850;52.502;13.426;2022-10-22T08:30:11;100859.66;;;15.48;100.00
56928;BME280;60850;52.502;13.426;2022-10-22T08:32:38;100852.53;;;15.47;100.00
56928;BME280;60850;52.502;13.426;2022-10-22T08:35:06;100861.56;;;15.46;100.00
56928;BME280;60850;52.502;13.426;2022-10-22T08:37:34;100864.91;;;15.51;100.00
56928;BME280;60850;52.502;13.426;2022-10-22T08:40:01;100879.00;;;15.56;100.00
56928;BME280;60850;52.502;13.426;2022-10-22T08:42:46;100880.72;;;15.57;100.00
56928;BME280;60850;52.502;13.426;2022-10-22T08:45:20;100875.25;;;15.60;100.00
56928;BME280;60850;52.502;13.426;2022-10-22T08:48:02;100876.06;;;15.62;100.00
56928;BME280;60850;52.502;13.426;2022-10-22T08:50:36;100880.38;;;15.66;100.00
56928;BME280;60850;52.502;13.426;2022-10-22T08:53:12;100881.84;;;15.73;100.00
56928;BME280;60850;52.502;13.426;2022-10-22T08:55:39;100884.19;;;15.81;100.00
56928;BME280;60850;52.502;13.426;2022-10-22T08:58:13;100883.22;;;15.82;100.00
56928;BME280;60850;52.502;13.426;2022-10-22T09:00:46;100878.56;;;15.85;100.00
56928;BME280;60850;52.502;13.426;2022-10-22T09:03:30;100887.38;;;15.89;100.00
56928;BME280;60850;52.502;13.426;2022-10-22T09:06:06;100886.50;;;15.88;100.00
56928;BME280;60850;52.502;13.426;2022-10-22T09:08:36;100893.44;;;15.94;100.00
56928;BME280;60850;52.502;13.426;2022-10-22T09:11:13;100896.72;;;16.01;100.00
56928;BME280;60850;52.502;13.426;2022-10-22T09:13:43;100890.16;;;16.06;100.00
56928;BME280;60850;52.502;13.426;2022-10-22T09:16:15;100894.38;;;16.12;100.00
56928;BME280;60850;52.502;13.426;2022-10-22T09:18:50;100900.69;;;16.11;100.00
56928;BME280;60850;52.502;13.426;2022-10-22T09:21:28;100897.06;;;16.12;100.00
56928;BME280;60850;52.502;13.426;2022-10-22T09:24:07;100908.56;;;16.15;100.00
56928;BME280;60850;52.502;13.426;2022-10-22T09:26:37;100900.13;;;16.23;100.00
56928;BME280;60850;52.502;13.426;2022-10-22T09:29:06;100894.22;;;16.34;100.00
56928;BME280;60850;52.502;13.426;2022-10-22T09:31:34;100893.25;;;16.54;100.00
56928;BME280;60850;52.502;13.426;2022-10-22T09:34:01;100895.28;;;16.67;100.00
56928;BME280;60850;52.502;13.426;2022-10-22T09:36:33;100896.66;;;16.76;100.00
56928;BME280;60850;52.502;13.426;2022-10-22T09:39:02;100902.78;;;16.80;100.00
56928;BME280;60850;52.502;13.426;2022-10-22T09:41:35;100906.13;;;16.85;100.00
56928;BME280;60850;52.502;13.426;2022-10-22T09:44:06;100903.97;;;16.91;100.00
56928;BME280;60850;52.502;13.426;2022-10-22T09:46:37;100907.31;;;16.96;100.00
56928;BME280;60850;52.502;13.426;2022-10-22T09:49:11;100905.63;;;17.13;100.00
56928;BME280;60850;52.502;13.426;2022-10-22T09:51:49;100911.16;;;17.27;100.00
56928;BME280;60850;52.502;13.426;2022-10-22T09:54:18;100915.34;;;17.33;100.00
56928;BME280;60850;52.502;13.426;2022-10-22T09:56:51;100911.16;;;17.44;100.00
56928;BME280;60850;52.502;13.426;2022-10-22T09:59:25;100915.72;;;17.60;100.00
56928;BME280;60850;52.502;13.426;2022-10-22T10:01:57;100917.41;;;17.79;100.00
56928;BME280;60850;52.502;13.426;2022-10-22T10:04:25;100914.63;;;17.81;100.00
56928;BME280;60850;52.502;13.426;2022-10-22T10:06:53;100911.28;;;17.76;100.00
56928;BME280;60850;52.502;13.426;2022-10-22T10:09:22;100915.22;;;17.69;100.00
56928;BME280;60850;52.502;13.426;2022-10-22T10:11:56;100909.69;;;17.54;100.00
56928;BME280;60850;52.502;13.426;2022-10-22T10:14:33;100914.72;;;17.45;100.00
56928;BME280;60850;52.502;13.426;2022-10-22T10:17:08;100911.47;;;17.38;100.00
56928;BME280;60850;52.502;13.426;2022-10-22T10:19:47;100913.69;;;17.30;100.00
56928;BME280;60850;52.502;13.426;2022-10-22T10:22:28;100920.34;;;17.23;100.00
56928;BME280;60850;52.502;13.426;2022-10-22T10:25:11;100916.22;;;17.16;100.00
56928;BME280;60850;52.502;13.426;2022-10-22T10:27:43;100919.31;;;17.08;100.00
56928;BME280;60850;52.502;13.426;2022-10-22T10:30:15;100915.25;;;16.99;100.00
56928;BME280;60850;52.502;13.426;2022-10-22T10:33:09;100916.75;;;17.05;100.00
56928;BME280;60850;52.502;13.426;2022-10-22T10:35:42;100916.63;;;17.08;100.00
56928;BME280;60850;52.502;13.426;2022-10-22T10:38:22;100918.19;;;17.12;100.00
56928;BME280;60850;52.502;13.426;2022-10-22T10:40:55;100915.19;;;17.18;100.00
56928;BME280;60850;52.502;13.426;2022-10-22T10:43:31;100907.97;;;17.19;100.00
56928;BME280;60850;52.502;13.426;2022-10-22T10:46:08;100913.34;;;17.19;100.00
56928;BME280;60850;52.502;13.426;2022-10-22T10:48:48;100915.13;;;17.20;100.00
56928;BME280;60850;52.502;13.426;2022-10-22T10:51:30;100908.78;;;17.21;100.00
56928;BME280;60850;52.502;13.426;2022-10-22T10:54:14;100906.09;;;17.21;100.00
56928;BME280;60850;52.502;13.426;2022-10-22T10:56:46;100912.97;;;17.26;100.00
56928;BME280;60850;52.502;13.426;2022-10-22T10:59:20;100917.72;;;17.39;100.00
56928;BME280;60850;52.502;13.426;2022-10-22T11:02:07;100915.03;;;17.56;100.00
56928;BME280;60850;52.502;13.426;2022-10-22T11:05:10;100927.56;;;18.07;100.00
56928;BME280;60850;52.502;13.426;2022-10-22T11:07:45;100920.84;;;18.63;100.00
56928;BME280;60850;52.502;13.426;2022-10-22T11:10:21;100914.53;;;19.10;100.00
56928;BME280;60850;52.502;13.426;2022-10-22T11:12:52;100910.53;;;19.17;100.00
56928;BME280;60850;52.502;13.426;2022-10-22T11:15:27;100912.78;;;19.09;100.00
56928;BME280;60850;52.502;13.426;2022-10-22T11:18:00;100911.50;;;19.31;100.00
56928;BME280;60850;52.502;13.426;2022-10-22T11:20:40;100909.25;;;19.53;100.00
56928;BME280;60850;52.502;13.426;2022-10-22T11:23:14;100912.50;;;19.44;100.00
56928;BME280;60850;52.502;13.426;2022-10-22T11:25:44;100908.53;;;19.35;100.00
56928;BME280;60850;52.502;13.426;2022-10-22T11:28:13;100916.03;;;19.30;100.00
56928;BME280;60850;52.502;13.426;2022-10-22T11:30:46;100908.38;;;19.38;100.00
56928;BME280;60850;52.502;13.426;2022-10-22T11:33:18;100909.00;;;19.28;100.00
56928;BME280;60850;52.502;13.426;2022-10-22T11:35:47;100909.19;;;19.25;100.00
56928;BME280;60850;52.502;13.426;2022-10-22T11:38:17;100909.72;;;19.15;100.00
56928;BME280;60850;52.502;13.426;2022-10-22T11:40:47;100908.28;;;18.94;100.00
56928;BME280;60850;52.502;13.426;2022-10-22T11:43:27;100912.06;;;18.76;100.00
56928;BME280;60850;52.502;13.426;2022-10-22T11:46:08;100916.00;;;18.70;100.00
56928;BME280;60850;52.502;13.426;2022-10-22T11:49:01;100916.84;;;18.55;100.00
56928;BME280;60850;52.502;13.426;2022-10-22T11:51:31;100912.13;;;18.43;100.00
56928;BME280;60850;52.502;13.426;2022-10-22T11:54:01;100915.59;;;18.29;100.00
56928;BME280;60850;52.502;13.426;2022-10-22T11:56:36;100906.97;;;18.22;100.00
56928;BME280;60850;52.502;13.426;2022-10-22T11:59:22;100913.84;;;18.28;100.00
56928;BME280;60850;52.502;13.426;2022-10-22T12:01:56;100914.00;;;18.25;100.00
56928;BME280;60850;52.502;13.426;2022-10-22T12:04:39;100909.94;;;18.33;100.00
56928;BME280;60850;52.502;13.426;2022-10-22T12:07:29;100906.97;;;18.38;100.00
56928;BME280;60850;52.502;13.426;2022-10-22T12:09:57;100906.47;;;18.47;100.00
56928;BME280;60850;52.502;13.426;2022-10-22T12:12:24;100915.59;;;18.45;100.00
56928;BME280;60850;52.502;13.426;2022-10-22T12:14:55;100907.50;;;18.29;100.00
56928;BME280;60850;52.502;13.426;2022-10-22T12:17:24;100904.44;;;18.19;100.00
56928;BME280;60850;52.502;13.426;2022-10-22T12:19:58;100912.78;;;18.15;100.00
56928;BME280;60850;52.502;13.426;2022-10-22T12:22:28;100906.78;;;18.09;100.00
56928;BME280;60850;52.502;13.426;2022-10-22T12:25:00;100911.72;;;18.01;100.00
56928;BME280;60850;52.502;13.426;2022-10-22T12:27:33;100921.09;;;17.94;100.00
56928;BME280;60850;52.502;13.426;2022-10-22T12:30:01;100914.47;;;17.84;100.00
56928;BME280;60850;52.502;13.426;2022-10-22T12:32:35;100918.50;;;17.75;100.00
56928;BME280;60850;52.502;13.426;2022-10-22T12:35:04;100915.59;;;17.80;100.00
56928;BME280;60850;52.502;13.426;2022-10-22T12:37:33;100919.22;;;17.79;100.00
56928;BME280;60850;52.502;13.426;2022-10-22T12:40:00;100920.81;;;17.83;100.00
56928;BME280;60850;52.502;13.426;2022-10-22T12:42:28;100922.56;;;17.84;100.00
56928;BME280;60850;52.502;13.426;2022-10-22T12:44:55;100916.34;;;17.82;100.00
56928;BME280;60850;52.502;13.426;2022-10-22T12:47:22;100915.59;;;17.80;100.00
56928;BME280;60850;52.502;13.426;2022-10-22T12:49:50;100917.22;;;17.82;100.00